sensor_id;sensor_type;location;lat;lon;timestamp;P1;durP1;ratioP1;P2;durP2;ratioP2
72261;SDS011;60173;52.112;8.648;2022-07-25T00:01:28;9.27;;;7.20;;
72261;SDS011;60173;52.112;8.648;2022-07-25T00:03:55;7.57;;;6.60;;
72261;SDS011;60173;52.112;8.648;2022-07-25T00:06:22;10.48;;;7.03;;
72261;SDS011;60173;52.112;8.648;2022-07-25T00:08:48;10.15;;;6.72;;
72261;SDS011;60173;52.112;8.648;2022-07-25T00:11:15;10.02;;;7.07;;
72261;SDS011;60173;52.112;8.648;2022-07-25T00:13:41;10.43;;;6.82;;
72261;SDS011;60173;52.112;8.648;2022-07-25T00:16:08;9.48;;;6.85;;
72261;SDS011;60173;52.112;8.648;2022-07-25T00:18:34;7.50;;;6.80;;
72261;SDS011;60173;52.112;8.648;2022-07-25T00:21:01;10.68;;;7.20;;
72261;SDS011;60173;52.112;8.648;2022-07-25T00:23:27;9.50;;;7.30;;
72261;SDS011;60173;52.112;8.648;2022-07-25T00:25:53;7.72;;;6.72;;
72261;SDS011;60173;52.112;8.648;2022-07-25T00:28:20;11.50;;;7.13;;
72261;SDS011;60173;52.112;8.648;2022-07-25T00:30:46;10.93;;;7.93;;
72261;SDS011;60173;52.112;8.648;2022-07-25T00:33:13;8.82;;;7.25;;
72261;SDS011;60173;52.112;8.648;2022-07-25T00:38:08;9.00;;;6.75;;
72261;SDS011;60173;52.112;8.648;2022-07-25T00:40:35;9.38;;;6.78;;
72261;SDS011;60173;52.112;8.648;2022-07-25T00:43:01;8.20;;;6.88;;
72261;SDS011;60173;52.112;8.648;2022-07-25T00:45:28;10.68;;;6.97;;
72261;SDS011;60173;52.112;8.648;2022-07-25T00:47:55;7.47;;;6.68;;
72261;SDS011;60173;52.112;8.648;2022-07-25T00:50:21;9.98;;;6.97;;
72261;SDS011;60173;52.112;8.648;2022-07-25T00:52:48;8.90;;;6.63;;
72261;SDS011;60173;52.112;8.648;2022-07-25T00:55:14;8.07;;;6.97;;
72261;SDS011;60173;52.112;8.648;2022-07-25T00:57:41;7.57;;;6.10;;
72261;SDS011;60173;52.112;8.648;2022-07-25T01:00:09;8.93;;;6.88;;
72261;SDS011;60173;52.112;8.648;2022-07-25T01:02:38;8.73;;;6.80;;
72261;SDS011;60173;52.112;8.648;2022-07-25T01:05:06;7.50;;;6.65;;
72261;SDS011;60173;52.112;8.648;2022-07-25T01:07:35;7.85;;;6.93;;
72261;SDS011;60173;52.112;8.648;2022-07-25T01:10:03;8.40;;;6.85;;
72261;SDS011;60173;52.112;8.648;2022-07-25T01:12:31;9.73;;;7.20;;
72261;SDS011;60173;52.112;8.648;2022-07-25T01:15:08;7.65;;;6.60;;
72261;SDS011;60173;52.112;8.648;2022-07-25T01:17:35;8.48;;;6.93;;
72261;SDS011;60173;52.112;8.648;2022-07-25T01:20:01;8.20;;;6.80;;
72261;SDS011;60173;52.112;8.648;2022-07-25T01:22:28;7.68;;;6.88;;
72261;SDS011;60173;52.112;8.648;2022-07-25T01:24:54;10.48;;;7.05;;
72261;SDS011;60173;52.112;8.648;2022-07-25T01:27:21;9.20;;;7.60;;
72261;SDS011;60173;52.112;8.648;2022-07-25T01:29:47;7.97;;;6.68;;
72261;SDS011;60173;52.112;8.648;2022-07-25T01:32:14;8.63;;;6.95;;
72261;SDS011;60173;52.112;8.648;2022-07-25T01:34:40;11.68;;;6.93;;
72261;SDS011;60173;52.112;8.648;2022-07-25T01:37:07;8.57;;;6.90;;
72261;SDS011;60173;52.112;8.648;2022-07-25T01:39:33;9.63;;;6.45;;
72261;SDS011;60173;52.112;8.648;2022-07-25T01:41:59;9.63;;;6.45;;
72261;SDS011;60173;52.112;8.648;2022-07-25T01:44:26;7.85;;;6.80;;
72261;SDS011;60173;52.112;8.648;2022-07-25T01:46:52;8.95;;;6.90;;
72261;SDS011;60173;52.112;8.648;2022-07-25T01:49:19;7.90;;;6.28;;
72261;SDS011;60173;52.112;8.648;2022-07-25T01:51:45;9.07;;;6.82;;
72261;SDS011;60173;52.112;8.648;2022-07-25T01:54:13;7.38;;;6.50;;
72261;SDS011;60173;52.112;8.648;2022-07-25T01:56:43;8.88;;;7.03;;
72261;SDS011;60173;52.112;8.648;2022-07-25T01:59:13;9.10;;;6.25;;
72261;SDS011;60173;52.112;8.648;2022-07-25T02:01:40;6.75;;;6.05;;
72261;SDS011;60173;52.112;8.648;2022-07-25T02:04:06;9.45;;;6.53;;
72261;SDS011;60173;52.112;8.648;2022-07-25T02:06:34;9.00;;;6.18;;
72261;SDS011;60173;52.112;8.648;2022-07-25T02:09:01;9.93;;;6.68;;
72261;SDS011;60173;52.112;8.648;2022-07-25T02:11:28;12.00;;;7.13;;
72261;SDS011;60173;52.112;8.648;2022-07-25T02:13:55;9.23;;;6.25;;
72261;SDS011;60173;52.112;8.648;2022-07-25T02:16:21;7.90;;;6.50;;
72261;SDS011;60173;52.112;8.648;2022-07-25T02:18:54;7.80;;;5.82;;
72261;SDS011;60173;52.112;8.648;2022-07-25T02:21:20;10.57;;;6.68;;
72261;SDS011;60173;52.112;8.648;2022-07-25T02:23:47;10.57;;;6.20;;
72261;SDS011;60173;52.112;8.648;2022-07-25T02:26:13;9.60;;;6.55;;
72261;SDS011;60173;52.112;8.648;2022-07-25T02:28:40;8.82;;;6.32;;
72261;SDS011;60173;52.112;8.648;2022-07-25T02:31:06;9.45;;;6.63;;
72261;SDS011;60173;52.112;8.648;2022-07-25T02:33:33;9.88;;;6.90;;
72261;SDS011;60173;52.112;8.648;2022-07-25T02:36:00;9.73;;;7.35;;
72261;SDS011;60173;52.112;8.648;2022-07-25T02:38:26;10.45;;;7.10;;
72261;SDS011;60173;52.112;8.648;2022-07-25T02:40:52;10.23;;;6.50;;
72261;SDS011;60173;52.112;8.648;2022-07-25T02:43:19;8.30;;;6.93;;
72261;SDS011;60173;52.112;8.648;2022-07-25T02:45:46;9.55;;;7.45;;
72261;SDS011;60173;52.112;8.648;2022-07-25T02:48:13;8.57;;;7.20;;
72261;SDS011;60173;52.112;8.648;2022-07-25T02:50:39;10.98;;;7.88;;
72261;SDS011;60173;52.112;8.648;2022-07-25T02:53:06;9.65;;;7.70;;
72261;SDS011;60173;52.112;8.648;2022-07-25T02:55:32;13.48;;;8.27;;
72261;SDS011;60173;52.112;8.648;2022-07-25T02:57:58;9.43;;;7.85;;
72261;SDS011;60173;52.112;8.648;2022-07-25T03:00:25;9.30;;;7.38;;
72261;SDS011;60173;52.112;8.648;2022-07-25T03:02:51;8.65;;;7.22;;
72261;SDS011;60173;52.112;8.648;2022-07-25T03:05:18;8.13;;;6.90;;
72261;SDS011;60173;52.112;8.648;2022-07-25T03:07:44;10.93;;;6.93;;
72261;SDS011;60173;52.112;8.648;2022-07-25T03:10:12;8.00;;;6.57;;
72261;SDS011;60173;52.112;8.648;2022-07-25T03:12:40;8.15;;;6.82;;
72261;SDS011;60173;52.112;8.648;2022-07-25T03:15:08;7.82;;;6.43;;
72261;SDS011;60173;52.112;8.648;2022-07-25T03:17:35;8.93;;;6.35;;
72261;SDS011;60173;52.112;8.648;2022-07-25T03:20:03;8.13;;;6.53;;
72261;SDS011;60173;52.112;8.648;2022-07-25T03:22:33;7.72;;;6.47;;
72261;SDS011;60173;52.112;8.648;2022-07-25T03:25:00;7.22;;;6.22;;
72261;SDS011;60173;52.112;8.648;2022-07-25T03:27:27;9.82;;;6.72;;
72261;SDS011;60173;52.112;8.648;2022-07-25T03:29:53;7.47;;;5.93;;
72261;SDS011;60173;52.112;8.648;2022-07-25T03:32:20;7.50;;;6.43;;
72261;SDS011;60173;52.112;8.648;2022-07-25T03:34:46;7.70;;;6.30;;
72261;SDS011;60173;52.112;8.648;2022-07-25T03:37:12;12.63;;;6.82;;
72261;SDS011;60173;52.112;8.648;2022-07-25T03:39:39;7.38;;;6.63;;
72261;SDS011;60173;52.112;8.648;2022-07-25T03:42:05;8.60;;;6.55;;
72261;SDS011;60173;52.112;8.648;2022-07-25T03:44:32;6.65;;;5.95;;
72261;SDS011;60173;52.112;8.648;2022-07-25T03:46:58;7.03;;;6.28;;
72261;SDS011;60173;52.112;8.648;2022-07-25T03:49:25;8.85;;;6.20;;
72261;SDS011;60173;52.112;8.648;2022-07-25T03:51:51;9.57;;;6.05;;
72261;SDS011;60173;52.112;8.648;2022-07-25T03:54:17;10.95;;;6.32;;
72261;SDS011;60173;52.112;8.648;2022-07-25T03:56:45;7.25;;;6.00;;
72261;SDS011;60173;52.112;8.648;2022-07-25T03:59:16;6.95;;;5.63;;
72261;SDS011;60173;52.112;8.648;2022-07-25T04:01:46;10.77;;;6.75;;
72261;SDS011;60173;52.112;8.648;2022-07-25T04:04:14;8.52;;;5.78;;
72261;SDS011;60173;52.112;8.648;2022-07-25T04:06:41;6.85;;;5.93;;
72261;SDS011;60173;52.112;8.648;2022-07-25T04:09:08;9.82;;;5.68;;
72261;SDS011;60173;52.112;8.648;2022-07-25T04:11:35;8.52;;;6.20;;
72261;SDS011;60173;52.112;8.648;2022-07-25T04:14:02;7.65;;;6.10;;
72261;SDS011;60173;52.112;8.648;2022-07-25T04:16:29;7.57;;;6.10;;
72261;SDS011;60173;52.112;8.648;2022-07-25T04:18:56;6.93;;;6.20;;
72261;SDS011;60173;52.112;8.648;2022-07-25T04:21:23;8.50;;;5.88;;
72261;SDS011;60173;52.112;8.648;2022-07-25T04:23:50;8.82;;;5.93;;
72261;SDS011;60173;52.112;8.648;2022-07-25T04:26:17;7.88;;;6.25;;
72261;SDS011;60173;52.112;8.648;2022-07-25T04:28:44;7.28;;;5.63;;
72261;SDS011;60173;52.112;8.648;2022-07-25T04:31:11;8.02;;;5.55;;
72261;SDS011;60173;52.112;8.648;2022-07-25T04:33:38;8.60;;;5.80;;
72261;SDS011;60173;52.112;8.648;2022-07-25T04:36:05;7.38;;;5.80;;
72261;SDS011;60173;52.112;8.648;2022-07-25T04:38:32;7.05;;;5.97;;
72261;SDS011;60173;52.112;8.648;2022-07-25T04:40:59;6.47;;;5.78;;
72261;SDS011;60173;52.112;8.648;2022-07-25T04:43:25;9.93;;;6.13;;
72261;SDS011;60173;52.112;8.648;2022-07-25T04:45:52;6.32;;;5.57;;
72261;SDS011;60173;52.112;8.648;2022-07-25T04:48:18;7.13;;;5.82;;
72261;SDS011;60173;52.112;8.648;2022-07-25T04:50:44;6.32;;;5.28;;
72261;SDS011;60173;52.112;8.648;2022-07-25T04:53:11;7.63;;;5.68;;
72261;SDS011;60173;52.112;8.648;2022-07-25T04:55:37;7.82;;;6.25;;
72261;SDS011;60173;52.112;8.648;2022-07-25T04:58:04;7.13;;;5.63;;
72261;SDS011;60173;52.112;8.648;2022-07-25T05:00:31;8.35;;;5.70;;
72261;SDS011;60173;52.112;8.648;2022-07-25T05:02:58;6.78;;;5.45;;
72261;SDS011;60173;52.112;8.648;2022-07-25T05:05:24;6.63;;;5.22;;
72261;SDS011;60173;52.112;8.648;2022-07-25T05:07:55;9.13;;;6.07;;
72261;SDS011;60173;52.112;8.648;2022-07-25T05:10:23;7.25;;;5.72;;
72261;SDS011;60173;52.112;8.648;2022-07-25T05:12:50;8.38;;;6.03;;
72261;SDS011;60173;52.112;8.648;2022-07-25T05:15:16;6.55;;;5.38;;
72261;SDS011;60173;52.112;8.648;2022-07-25T05:17:43;6.53;;;5.60;;
72261;SDS011;60173;52.112;8.648;2022-07-25T05:20:10;11.75;;;5.82;;
72261;SDS011;60173;52.112;8.648;2022-07-25T05:22:37;8.57;;;5.60;;
72261;SDS011;60173;52.112;8.648;2022-07-25T05:25:07;6.82;;;5.03;;
72261;SDS011;60173;52.112;8.648;2022-07-25T05:27:35;6.00;;;5.00;;
72261;SDS011;60173;52.112;8.648;2022-07-25T05:30:02;7.18;;;5.15;;
72261;SDS011;60173;52.112;8.648;2022-07-25T05:32:30;5.55;;;5.03;;
72261;SDS011;60173;52.112;8.648;2022-07-25T05:34:57;7.07;;;5.43;;
72261;SDS011;60173;52.112;8.648;2022-07-25T05:37:23;7.40;;;5.13;;
72261;SDS011;60173;52.112;8.648;2022-07-25T05:39:49;6.47;;;5.00;;
72261;SDS011;60173;52.112;8.648;2022-07-25T05:42:16;6.90;;;5.55;;
72261;SDS011;60173;52.112;8.648;2022-07-25T05:44:42;5.68;;;5.10;;
72261;SDS011;60173;52.112;8.648;2022-07-25T05:47:09;6.20;;;5.60;;
72261;SDS011;60173;52.112;8.648;2022-07-25T05:49:36;5.90;;;5.22;;
72261;SDS011;60173;52.112;8.648;2022-07-25T05:52:03;5.25;;;4.75;;
72261;SDS011;60173;52.112;8.648;2022-07-25T05:54:36;6.60;;;5.50;;
72261;SDS011;60173;52.112;8.648;2022-07-25T05:57:02;7.47;;;5.57;;
72261;SDS011;60173;52.112;8.648;2022-07-25T05:59:29;7.15;;;5.00;;
72261;SDS011;60173;52.112;8.648;2022-07-25T06:01:55;6.32;;;5.43;;
72261;SDS011;60173;52.112;8.648;2022-07-25T06:04:22;6.65;;;5.22;;
72261;SDS011;60173;52.112;8.648;2022-07-25T06:06:52;6.45;;;5.60;;
72261;SDS011;60173;52.112;8.648;2022-07-25T06:09:19;9.30;;;5.55;;
72261;SDS011;60173;52.112;8.648;2022-07-25T06:11:47;6.45;;;5.45;;
72261;SDS011;60173;52.112;8.648;2022-07-25T06:14:25;7.32;;;5.82;;
72261;SDS011;60173;52.112;8.648;2022-07-25T06:16:52;6.07;;;4.80;;
72261;SDS011;60173;52.112;8.648;2022-07-25T06:19:18;6.45;;;4.95;;
72261;SDS011;60173;52.112;8.648;2022-07-25T06:21:44;6.95;;;4.75;;
72261;SDS011;60173;52.112;8.648;2022-07-25T06:24:11;7.47;;;5.93;;
72261;SDS011;60173;52.112;8.648;2022-07-25T06:26:37;6.38;;;5.65;;
72261;SDS011;60173;52.112;8.648;2022-07-25T06:29:04;5.78;;;5.00;;
72261;SDS011;60173;52.112;8.648;2022-07-25T06:31:30;6.68;;;5.05;;
72261;SDS011;60173;52.112;8.648;2022-07-25T06:33:57;6.63;;;5.10;;
72261;SDS011;60173;52.112;8.648;2022-07-25T06:36:23;7.78;;;5.13;;
72261;SDS011;60173;52.112;8.648;2022-07-25T06:41:24;8.10;;;5.80;;
72261;SDS011;60173;52.112;8.648;2022-07-25T06:43:50;6.95;;;5.10;;
72261;SDS011;60173;52.112;8.648;2022-07-25T06:46:17;6.55;;;5.38;;
72261;SDS011;60173;52.112;8.648;2022-07-25T06:48:43;8.45;;;5.40;;
72261;SDS011;60173;52.112;8.648;2022-07-25T06:51:10;6.35;;;5.53;;
72261;SDS011;60173;52.112;8.648;2022-07-25T06:53:36;5.75;;;5.13;;
72261;SDS011;60173;52.112;8.648;2022-07-25T06:56:02;6.75;;;5.47;;
72261;SDS011;60173;52.112;8.648;2022-07-25T06:58:29;8.38;;;5.30;;
72261;SDS011;60173;52.112;8.648;2022-07-25T07:00:55;6.45;;;5.32;;
72261;SDS011;60173;52.112;8.648;2022-07-25T07:03:22;6.80;;;5.35;;
72261;SDS011;60173;52.112;8.648;2022-07-25T07:05:48;6.50;;;5.22;;
72261;SDS011;60173;52.112;8.648;2022-07-25T07:08:15;7.93;;;5.00;;
72261;SDS011;60173;52.112;8.648;2022-07-25T07:10:41;6.43;;;5.82;;
72261;SDS011;60173;52.112;8.648;2022-07-25T07:13:12;9.52;;;5.80;;
72261;SDS011;60173;52.112;8.648;2022-07-25T07:15:43;6.57;;;5.63;;
72261;SDS011;60173;52.112;8.648;2022-07-25T07:18:12;6.93;;;5.40;;
72261;SDS011;60173;52.112;8.648;2022-07-25T07:20:39;5.63;;;5.07;;
72261;SDS011;60173;52.112;8.648;2022-07-25T07:23:05;7.03;;;5.75;;
72261;SDS011;60173;52.112;8.648;2022-07-25T07:25:33;6.50;;;5.63;;
72261;SDS011;60173;52.112;8.648;2022-07-25T07:28:00;7.15;;;5.55;;
72261;SDS011;60173;52.112;8.648;2022-07-25T07:30:27;6.70;;;5.97;;
72261;SDS011;60173;52.112;8.648;2022-07-25T07:33:14;7.80;;;5.80;;
72261;SDS011;60173;52.112;8.648;2022-07-25T07:35:42;8.88;;;6.38;;
72261;SDS011;60173;52.112;8.648;2022-07-25T07:38:09;8.65;;;5.60;;
72261;SDS011;60173;52.112;8.648;2022-07-25T07:40:36;8.77;;;5.68;;
72261;SDS011;60173;52.112;8.648;2022-07-25T07:43:02;6.28;;;5.50;;
72261;SDS011;60173;52.112;8.648;2022-07-25T07:45:29;7.43;;;6.28;;
72261;SDS011;60173;52.112;8.648;2022-07-25T07:47:55;7.18;;;5.68;;
72261;SDS011;60173;52.112;8.648;2022-07-25T07:50:23;7.32;;;5.97;;
72261;SDS011;60173;52.112;8.648;2022-07-25T07:52:51;6.82;;;6.13;;
72261;SDS011;60173;52.112;8.648;2022-07-25T07:55:18;6.82;;;5.80;;
72261;SDS011;60173;52.112;8.648;2022-07-25T07:57:48;6.28;;;5.40;;
72261;SDS011;60173;52.112;8.648;2022-07-25T08:00:14;5.95;;;5.45;;
72261;SDS011;60173;52.112;8.648;2022-07-25T08:02:43;7.22;;;5.57;;
72261;SDS011;60173;52.112;8.648;2022-07-25T08:05:10;7.85;;;5.80;;
72261;SDS011;60173;52.112;8.648;2022-07-25T08:07:37;8.95;;;5.97;;
72261;SDS011;60173;52.112;8.648;2022-07-25T08:10:03;7.25;;;6.47;;
72261;SDS011;60173;52.112;8.648;2022-07-25T08:12:30;6.68;;;5.88;;
72261;SDS011;60173;52.112;8.648;2022-07-25T08:14:56;6.65;;;5.78;;
72261;SDS011;60173;52.112;8.648;2022-07-25T08:17:23;7.57;;;6.05;;
72261;SDS011;60173;52.112;8.648;2022-07-25T08:19:53;6.85;;;6.10;;
72261;SDS011;60173;52.112;8.648;2022-07-25T08:22:20;7.15;;;6.18;;
72261;SDS011;60173;52.112;8.648;2022-07-25T08:24:46;7.20;;;6.20;;
72261;SDS011;60173;52.112;8.648;2022-07-25T08:27:13;11.38;;;5.88;;
72261;SDS011;60173;52.112;8.648;2022-07-25T08:29:39;7.63;;;6.50;;
72261;SDS011;60173;52.112;8.648;2022-07-25T08:32:05;6.90;;;6.00;;
72261;SDS011;60173;52.112;8.648;2022-07-25T08:34:32;7.28;;;6.00;;
72261;SDS011;60173;52.112;8.648;2022-07-25T08:36:58;7.03;;;6.30;;
72261;SDS011;60173;52.112;8.648;2022-07-25T08:39:24;7.18;;;6.32;;
72261;SDS011;60173;52.112;8.648;2022-07-25T08:41:51;9.70;;;6.50;;
72261;SDS011;60173;52.112;8.648;2022-07-25T08:44:17;7.28;;;6.00;;
72261;SDS011;60173;52.112;8.648;2022-07-25T08:46:45;7.68;;;5.40;;
72261;SDS011;60173;52.112;8.648;2022-07-25T08:49:13;6.90;;;5.60;;
72261;SDS011;60173;52.112;8.648;2022-07-25T08:51:39;6.60;;;5.93;;
72261;SDS011;60173;52.112;8.648;2022-07-25T08:54:05;10.13;;;5.70;;
72261;SDS011;60173;52.112;8.648;2022-07-25T08:56:33;6.60;;;5.88;;
72261;SDS011;60173;52.112;8.648;2022-07-25T08:58:59;8.13;;;5.60;;
72261;SDS011;60173;52.112;8.648;2022-07-25T09:01:25;7.45;;;5.60;;
72261;SDS011;60173;52.112;8.648;2022-07-25T09:03:59;8.13;;;5.82;;
72261;SDS011;60173;52.112;8.648;2022-07-25T09:06:26;7.32;;;5.65;;
72261;SDS011;60173;52.112;8.648;2022-07-25T09:08:56;6.10;;;5.50;;
72261;SDS011;60173;52.112;8.648;2022-07-25T09:11:28;6.18;;;5.57;;
72261;SDS011;60173;52.112;8.648;2022-07-25T09:16:33;9.65;;;6.22;;
72261;SDS011;60173;52.112;8.648;2022-07-25T09:21:33;10.05;;;6.10;;
72261;SDS011;60173;52.112;8.648;2022-07-25T09:24:15;6.10;;;5.50;;
72261;SDS011;60173;52.112;8.648;2022-07-25T09:29:19;6.95;;;6.10;;
72261;SDS011;60173;52.112;8.648;2022-07-25T09:31:53;8.40;;;6.20;;
72261;SDS011;60173;52.112;8.648;2022-07-25T09:36:57;8.70;;;5.80;;
72261;SDS011;60173;52.112;8.648;2022-07-25T09:39:36;10.70;;;6.28;;
72261;SDS011;60173;52.112;8.648;2022-07-25T09:47:27;7.10;;;6.07;;
72261;SDS011;60173;52.112;8.648;2022-07-25T09:49:53;6.93;;;6.18;;
72261;SDS011;60173;52.112;8.648;2022-07-25T09:52:20;6.85;;;6.15;;
72261;SDS011;60173;52.112;8.648;2022-07-25T09:54:47;7.07;;;6.38;;
72261;SDS011;60173;52.112;8.648;2022-07-25T09:57:14;8.68;;;6.35;;
72261;SDS011;60173;52.112;8.648;2022-07-25T09:59:41;6.85;;;6.13;;
72261;SDS011;60173;52.112;8.648;2022-07-25T10:02:23;8.65;;;5.85;;
72261;SDS011;60173;52.112;8.648;2022-07-25T10:07:50;9.38;;;6.03;;
72261;SDS011;60173;52.112;8.648;2022-07-25T10:10:30;8.02;;;6.32;;
72261;SDS011;60173;52.112;8.648;2022-07-25T10:13:02;6.10;;;5.25;;
72261;SDS011;60173;52.112;8.648;2022-07-25T10:15:43;6.80;;;5.65;;
72261;SDS011;60173;52.112;8.648;2022-07-25T10:18:12;7.35;;;5.40;;
72261;SDS011;60173;52.112;8.648;2022-07-25T10:20:39;6.05;;;5.30;;
72261;SDS011;60173;52.112;8.648;2022-07-25T10:23:15;6.53;;;5.20;;
72261;SDS011;60173;52.112;8.648;2022-07-25T10:25:46;7.32;;;5.30;;
72261;SDS011;60173;52.112;8.648;2022-07-25T10:28:33;5.78;;;5.20;;
72261;SDS011;60173;52.112;8.648;2022-07-25T10:31:01;6.18;;;5.57;;
72261;SDS011;60173;52.112;8.648;2022-07-25T10:33:27;6.88;;;5.43;;
72261;SDS011;60173;52.112;8.648;2022-07-25T10:36:03;7.20;;;5.75;;
72261;SDS011;60173;52.112;8.648;2022-07-25T10:38:31;8.38;;;5.55;;
72261;SDS011;60173;52.112;8.648;2022-07-25T10:41:01;6.88;;;5.20;;
72261;SDS011;60173;52.112;8.648;2022-07-25T10:43:35;6.32;;;5.32;;
72261;SDS011;60173;52.112;8.648;2022-07-25T10:46:09;7.90;;;5.63;;
72261;SDS011;60173;52.112;8.648;2022-07-25T10:48:37;5.38;;;4.88;;
72261;SDS011;60173;52.112;8.648;2022-07-25T10:51:07;6.53;;;5.10;;
72261;SDS011;60173;52.112;8.648;2022-07-25T10:56:17;12.35;;;6.05;;
72261;SDS011;60173;52.112;8.648;2022-07-25T11:03:51;7.55;;;5.82;;
72261;SDS011;60173;52.112;8.648;2022-07-25T11:06:35;8.07;;;6.03;;
72261;SDS011;60173;52.112;8.648;2022-07-25T11:09:11;7.85;;;6.13;;
72261;SDS011;60173;52.112;8.648;2022-07-25T11:11:45;6.65;;;5.70;;
72261;SDS011;60173;52.112;8.648;2022-07-25T11:14:14;7.22;;;5.93;;
72261;SDS011;60173;52.112;8.648;2022-07-25T11:16:44;7.82;;;5.90;;
72261;SDS011;60173;52.112;8.648;2022-07-25T11:19:16;7.45;;;5.15;;
72261;SDS011;60173;52.112;8.648;2022-07-25T11:21:48;7.75;;;6.03;;
72261;SDS011;60173;52.112;8.648;2022-07-25T11:24:17;6.40;;;5.07;;
72261;SDS011;60173;52.112;8.648;2022-07-25T11:26:50;7.97;;;5.80;;
72261;SDS011;60173;52.112;8.648;2022-07-25T11:32:07;7.07;;;5.32;;
72261;SDS011;60173;52.112;8.648;2022-07-25T11:34:35;5.80;;;5.20;;
72261;SDS011;60173;52.112;8.648;2022-07-25T11:37:06;6.57;;;5.88;;
72261;SDS011;60173;52.112;8.648;2022-07-25T11:39:35;7.22;;;5.70;;
72261;SDS011;60173;52.112;8.648;2022-07-25T11:42:06;8.20;;;5.45;;
72261;SDS011;60173;52.112;8.648;2022-07-25T11:47:23;6.60;;;5.60;;
72261;SDS011;60173;52.112;8.648;2022-07-25T11:49:51;5.70;;;5.07;;
72261;SDS011;60173;52.112;8.648;2022-07-25T11:57:39;7.40;;;5.60;;
72261;SDS011;60173;52.112;8.648;2022-07-25T12:00:07;6.47;;;5.40;;
72261;SDS011;60173;52.112;8.648;2022-07-25T12:02:40;8.52;;;5.72;;
72261;SDS011;60173;52.112;8.648;2022-07-25T12:05:08;6.57;;;5.78;;
72261;SDS011;60173;52.112;8.648;2022-07-25T12:07:40;8.77;;;6.20;;
72261;SDS011;60173;52.112;8.648;2022-07-25T12:10:14;8.10;;;5.75;;
72261;SDS011;60173;52.112;8.648;2022-07-25T12:12:51;8.05;;;5.60;;
72261;SDS011;60173;52.112;8.648;2022-07-25T12:15:21;7.32;;;5.65;;
72261;SDS011;60173;52.112;8.648;2022-07-25T12:17:50;6.47;;;5.85;;
72261;SDS011;60173;52.112;8.648;2022-07-25T12:20:19;6.88;;;5.97;;
72261;SDS011;60173;52.112;8.648;2022-07-25T12:22:48;7.00;;;5.72;;
72261;SDS011;60173;52.112;8.648;2022-07-25T12:25:15;5.75;;;5.15;;
72261;SDS011;60173;52.112;8.648;2022-07-25T12:27:42;6.53;;;5.78;;
72261;SDS011;60173;52.112;8.648;2022-07-25T12:30:09;6.20;;;5.60;;
72261;SDS011;60173;52.112;8.648;2022-07-25T12:32:36;6.55;;;5.75;;
72261;SDS011;60173;52.112;8.648;2022-07-25T12:35:04;9.77;;;5.78;;
72261;SDS011;60173;52.112;8.648;2022-07-25T12:37:32;13.25;;;5.65;;
72261;SDS011;60173;52.112;8.648;2022-07-25T12:39:59;8.88;;;5.88;;
72261;SDS011;60173;52.112;8.648;2022-07-25T12:42:25;6.45;;;5.47;;
72261;SDS011;60173;52.112;8.648;2022-07-25T12:44:52;9.65;;;5.93;;
72261;SDS011;60173;52.112;8.648;2022-07-25T12:47:18;7.38;;;5.43;;
72261;SDS011;60173;52.112;8.648;2022-07-25T12:49:45;6.22;;;5.63;;
72261;SDS011;60173;52.112;8.648;2022-07-25T12:52:12;6.57;;;5.88;;
72261;SDS011;60173;52.112;8.648;2022-07-25T12:54:38;6.20;;;5.60;;
72261;SDS011;60173;52.112;8.648;2022-07-25T12:57:05;7.35;;;5.95;;
72261;SDS011;60173;52.112;8.648;2022-07-25T12:59:31;7.10;;;5.35;;
72261;SDS011;60173;52.112;8.648;2022-07-25T13:01:58;6.22;;;5.35;;
72261;SDS011;60173;52.112;8.648;2022-07-25T13:04:25;8.55;;;6.00;;
72261;SDS011;60173;52.112;8.648;2022-07-25T13:06:53;11.10;;;5.78;;
72261;SDS011;60173;52.112;8.648;2022-07-25T13:09:20;6.07;;;5.43;;
72261;SDS011;60173;52.112;8.648;2022-07-25T13:11:47;7.28;;;5.65;;
72261;SDS011;60173;52.112;8.648;2022-07-25T13:14:13;8.82;;;6.00;;
72261;SDS011;60173;52.112;8.648;2022-07-25T13:16:43;8.05;;;6.25;;
72261;SDS011;60173;52.112;8.648;2022-07-25T13:19:11;7.25;;;5.57;;
72261;SDS011;60173;52.112;8.648;2022-07-25T13:21:38;9.35;;;5.82;;
72261;SDS011;60173;52.112;8.648;2022-07-25T13:24:05;8.18;;;5.82;;
72261;SDS011;60173;52.112;8.648;2022-07-25T13:26:32;6.90;;;6.20;;
72261;SDS011;60173;52.112;8.648;2022-07-25T13:28:59;10.63;;;6.00;;
72261;SDS011;60173;52.112;8.648;2022-07-25T13:31:26;8.80;;;6.38;;
72261;SDS011;60173;52.112;8.648;2022-07-25T13:33:53;7.47;;;5.82;;
72261;SDS011;60173;52.112;8.648;2022-07-25T13:36:19;8.55;;;6.38;;
72261;SDS011;60173;52.112;8.648;2022-07-25T13:38:46;7.15;;;5.70;;
72261;SDS011;60173;52.112;8.648;2022-07-25T13:41:12;11.93;;;6.22;;
72261;SDS011;60173;52.112;8.648;2022-07-25T13:43:39;6.43;;;5.82;;
72261;SDS011;60173;52.112;8.648;2022-07-25T13:46:06;8.93;;;6.75;;
72261;SDS011;60173;52.112;8.648;2022-07-25T13:48:32;13.60;;;6.88;;
72261;SDS011;60173;52.112;8.648;2022-07-25T13:50:59;8.43;;;6.68;;
72261;SDS011;60173;52.112;8.648;2022-07-25T13:53:26;8.75;;;6.50;;
72261;SDS011;60173;52.112;8.648;2022-07-25T13:55:56;9.35;;;6.75;;
72261;SDS011;60173;52.112;8.648;2022-07-25T13:58:23;7.93;;;6.63;;
72261;SDS011;60173;52.112;8.648;2022-07-25T14:00:49;12.02;;;6.68;;
72261;SDS011;60173;52.112;8.648;2022-07-25T14:03:16;7.78;;;6.60;;
72261;SDS011;60173;52.112;8.648;2022-07-25T14:05:42;9.55;;;6.50;;
72261;SDS011;60173;52.112;8.648;2022-07-25T14:08:09;7.03;;;6.32;;
72261;SDS011;60173;52.112;8.648;2022-07-25T14:10:35;7.40;;;6.53;;
72261;SDS011;60173;52.112;8.648;2022-07-25T14:13:01;9.25;;;6.78;;
72261;SDS011;60173;52.112;8.648;2022-07-25T14:15:28;10.43;;;6.97;;
72261;SDS011;60173;52.112;8.648;2022-07-25T14:17:54;11.43;;;7.35;;
72261;SDS011;60173;52.112;8.648;2022-07-25T14:20:21;10.52;;;7.03;;
72261;SDS011;60173;52.112;8.648;2022-07-25T14:22:47;7.75;;;6.90;;
72261;SDS011;60173;52.112;8.648;2022-07-25T14:25:14;9.98;;;6.60;;
72261;SDS011;60173;52.112;8.648;2022-07-25T14:27:40;9.40;;;6.80;;
72261;SDS011;60173;52.112;8.648;2022-07-25T14:30:07;9.80;;;7.03;;
72261;SDS011;60173;52.112;8.648;2022-07-25T14:32:34;13.27;;;6.72;;
72261;SDS011;60173;52.112;8.648;2022-07-25T14:35:01;9.50;;;6.43;;
72261;SDS011;60173;52.112;8.648;2022-07-25T14:37:28;7.10;;;6.38;;
72261;SDS011;60173;52.112;8.648;2022-07-25T14:39:55;9.75;;;6.35;;
72261;SDS011;60173;52.112;8.648;2022-07-25T14:42:21;8.55;;;5.90;;
72261;SDS011;60173;52.112;8.648;2022-07-25T14:44:47;7.43;;;5.88;;
72261;SDS011;60173;52.112;8.648;2022-07-25T14:47:14;6.80;;;5.82;;
72261;SDS011;60173;52.112;8.648;2022-07-25T14:49:40;6.15;;;5.20;;
72261;SDS011;60173;52.112;8.648;2022-07-25T14:52:07;7.53;;;5.13;;
72261;SDS011;60173;52.112;8.648;2022-07-25T14:54:33;7.80;;;5.32;;
72261;SDS011;60173;52.112;8.648;2022-07-25T14:57:00;9.48;;;5.35;;
72261;SDS011;60173;52.112;8.648;2022-07-25T14:59:27;6.22;;;5.28;;
72261;SDS011;60173;52.112;8.648;2022-07-25T15:01:53;9.45;;;5.10;;
72261;SDS011;60173;52.112;8.648;2022-07-25T15:04:19;5.85;;;3.80;;
72261;SDS011;60173;52.112;8.648;2022-07-25T15:06:46;5.00;;;3.70;;
72261;SDS011;60173;52.112;8.648;2022-07-25T15:09:13;4.93;;;3.90;;
72261;SDS011;60173;52.112;8.648;2022-07-25T15:11:40;5.63;;;4.25;;
72261;SDS011;60173;52.112;8.648;2022-07-25T15:14:06;9.52;;;4.28;;
72261;SDS011;60173;52.112;8.648;2022-07-25T15:16:32;6.75;;;3.95;;
72261;SDS011;60173;52.112;8.648;2022-07-25T15:18:59;7.22;;;3.72;;
72261;SDS011;60173;52.112;8.648;2022-07-25T15:21:45;7.40;;;3.80;;
72261;SDS011;60173;52.112;8.648;2022-07-25T15:24:12;5.68;;;3.65;;
72261;SDS011;60173;52.112;8.648;2022-07-25T15:26:39;5.00;;;3.70;;
72261;SDS011;60173;52.112;8.648;2022-07-25T15:29:06;5.50;;;3.58;;
72261;SDS011;60173;52.112;8.648;2022-07-25T15:31:36;5.10;;;3.97;;